Time;durP1;ratioP1;P1;durP2;ratioP2;P2;SDS_P1;SDS_P2;PMS_P1;PMS_P2;Temp;Humidity;BMP_temperature;BMP_pressure;BME280_temperature;BME280_humidity;BME280_pressure;Samples;Min_cycle;Max_cycle;Signal;HPM_P1;HPM_P2
2024/02/20 00:00:29;;;;;;;23.60;5.18;;;;;;;;;;5081575;28;20816;-76
2024/02/20 00:02:55;;;;;;;23.08;4.53;;;;;;;;;;5060451;28;20174;-75
2024/02/20 00:05:22;;;;;;;30.15;5.13;;;;;;;;;;5062480;28;20060;-74
2024/02/20 00:07:48;;;;;;;26.40;5.07;;;;;;;;;;5077693;28;20131;-75
2024/02/20 00:10:15;;;;;;;28.60;5.22;;;;;;;;;;5078786;28;20067;-76
2024/02/20 00:12:44;;;;;;;23.55;4.97;;;;;;;;;;5066734;28;20052;-76
2024/02/20 00:15:11;;;;;;;19.67;4.18;;;;;;;;;;5075506;28;20469;-75
2024/02/20 00:17:38;;;;;;;24.45;4.80;;;;;;;;;;5070610;28;20048;-74
2024/02/20 00:20:08;;;;;;;28.15;4.63;;;;;;;;;;5066792;28;20801;-73
2024/02/20 00:22:35;;;;;;;23.17;3.53;;;;;;;;;;5079462;28;20044;-74
2024/02/20 00:25:02;;;;;;;20.95;3.97;;;;;;;;;;5084827;28;20044;-75
2024/02/20 00:27:31;;;;;;;23.85;4.18;;;;;;;;;;5077992;28;20110;-76
2024/02/20 00:29:58;;;;;;;29.42;4.78;;;;;;;;;;5081031;28;20056;-76
2024/02/20 00:32:24;;;;;;;25.52;3.95;;;;;;;;;;5063387;28;20145;-75
2024/02/20 00:34:51;;;;;;;26.63;4.28;;;;;;;;;;5063632;28;20055;-75
2024/02/20 00:37:17;;;;;;;23.42;3.97;;;;;;;;;;5084098;28;20047;-76
2024/02/20 00:39:44;;;;;;;19.58;4.70;;;;;;;;;;5062701;28;20041;-76
2024/02/20 00:42:10;;;;;;;28.67;4.57;;;;;;;;;;5081556;28;20048;-76
2024/02/20 00:44:37;;;;;;;22.95;4.22;;;;;;;;;;5067951;28;20510;-74
2024/02/20 00:47:05;;;;;;;24.27;4.05;;;;;;;;;;5067296;28;20758;-75
2024/02/20 00:49:32;;;;;;;28.55;4.00;;;;;;;;;;5088670;28;20056;-75
2024/02/20 00:51:58;;;;;;;28.88;4.22;;;;;;;;;;5073763;28;20054;-76
2024/02/20 00:54:25;;;;;;;21.08;3.85;;;;;;;;;;5077934;28;20076;-73
2024/02/20 00:56:51;;;;;;;33.05;4.95;;;;;;;;;;5072543;28;20084;-74
2024/02/20 00:59:18;;;;;;;32.30;4.82;;;;;;;;;;5059627;28;20063;-76
2024/02/20 01:01:46;;;;;;;23.42;4.78;;;;;;;;;;5064328;28;20052;-76
2024/02/20 01:04:13;;;;;;;27.00;4.40;;;;;;;;;;5077536;28;20409;-75
2024/02/20 01:06:40;;;;;;;27.65;4.25;;;;;;;;;;5086852;28;20482;-78
2024/02/20 01:09:06;;;;;;;25.92;4.30;;;;;;;;;;5075462;28;20049;-77
2024/02/20 01:11:33;;;;;;;25.98;5.35;;;;;;;;;;5086171;28;20422;-78
2024/02/20 01:14:00;;;;;;;33.55;4.63;;;;;;;;;;5074325;28;20847;-79
2024/02/20 01:16:28;;;;;;;22.80;4.15;;;;;;;;;;5073966;28;20411;-77
2024/02/20 01:18:54;;;;;;;26.42;4.60;;;;;;;;;;5082416;28;20048;-79
2024/02/20 01:21:21;;;;;;;27.58;4.88;;;;;;;;;;5081127;28;20048;-79
2024/02/20 01:23:47;;;;;;;24.92;4.38;;;;;;;;;;5073667;28;20512;-79
2024/02/20 01:26:14;;;;;;;31.95;5.03;;;;;;;;;;5081619;28;20756;-77
2024/02/20 01:28:41;;;;;;;21.42;4.70;;;;;;;;;;5078536;28;20512;-79
2024/02/20 01:31:13;;;;;;;20.45;4.47;;;;;;;;;;5077789;28;20664;-77
2024/02/20 01:33:40;;;;;;;27.63;5.65;;;;;;;;;;5080749;28;20043;-78
2024/02/20 01:36:07;;;;;;;25.20;4.97;;;;;;;;;;5074017;28;20051;-77
2024/02/20 01:38:33;;;;;;;25.13;4.68;;;;;;;;;;5064282;28;20056;-78
2024/02/20 01:40:59;;;;;;;26.73;4.50;;;;;;;;;;5079761;28;20048;-78
2024/02/20 01:43:27;;;;;;;26.08;4.90;;;;;;;;;;5058649;28;20681;-77
2024/02/20 01:45:54;;;;;;;25.73;4.18;;;;;;;;;;5072873;28;20048;-78
2024/02/20 01:48:21;;;;;;;26.15;5.45;;;;;;;;;;5076790;28;20052;-78
2024/02/20 01:50:47;;;;;;;28.77;4.75;;;;;;;;;;5059846;28;20092;-80
2024/02/20 01:53:14;;;;;;;22.55;5.30;;;;;;;;;;5069175;28;20126;-78
2024/02/20 01:55:40;;;;;;;24.77;5.00;;;;;;;;;;5065589;28;20041;-79
2024/02/20 01:58:07;;;;;;;24.55;5.28;;;;;;;;;;5069465;28;20656;-79
2024/02/20 02:00:33;;;;;;;26.65;4.72;;;;;;;;;;5075032;28;20052;-79
2024/02/20 02:03:00;;;;;;;33.53;4.47;;;;;;;;;;5096175;28;20082;-79
2024/02/20 02:05:26;;;;;;;27.48;4.15;;;;;;;;;;5071385;28;20079;-78
2024/02/20 02:07:54;;;;;;;21.33;4.65;;;;;;;;;;5066208;28;20052;-79
2024/02/20 02:10:20;;;;;;;16.35;3.40;;;;;;;;;;5071372;28;20135;-77
2024/02/20 02:12:47;;;;;;;31.77;4.90;;;;;;;;;;5059175;28;20101;-78
2024/02/20 02:15:13;;;;;;;22.80;4.47;;;;;;;;;;5057017;28;20052;-78
2024/02/20 02:17:40;;;;;;;19.02;3.33;;;;;;;;;;5079839;28;20048;-78
2024/02/20 02:20:06;;;;;;;20.70;4.88;;;;;;;;;;5075236;28;20052;-79
2024/02/20 02:22:34;;;;;;;22.00;3.80;;;;;;;;;;5059717;28;20354;-78
2024/02/20 02:25:00;;;;;;;25.25;4.68;;;;;;;;;;5065643;28;20067;-80
2024/02/20 02:27:27;;;;;;;23.55;4.70;;;;;;;;;;5074284;28;20550;-79
2024/02/20 02:29:53;;;;;;;34.65;5.70;;;;;;;;;;5060218;28;20817;-78
2024/02/20 02:32:20;;;;;;;25.10;4.05;;;;;;;;;;5066852;28;20121;-79
2024/02/20 02:34:46;;;;;;;27.58;4.03;;;;;;;;;;5081820;28;20062;-78
2024/02/20 02:37:13;;;;;;;20.80;3.22;;;;;;;;;;5076163;28;20102;-79
2024/02/20 02:39:39;;;;;;;28.73;4.63;;;;;;;;;;5074542;28;20051;-78
2024/02/20 02:42:06;;;;;;;27.50;4.32;;;;;;;;;;5072458;28;20118;-79
2024/02/20 02:44:32;;;;;;;26.63;4.10;;;;;;;;;;5072164;28;20135;-78
2024/02/20 02:46:59;;;;;;;31.67;4.35;;;;;;;;;;5082715;28;20492;-78
2024/02/20 02:49:25;;;;;;;19.15;4.03;;;;;;;;;;5080928;28;20048;-78
2024/02/20 02:51:52;;;;;;;29.23;4.00;;;;;;;;;;5085774;28;20059;-80
2024/02/20 02:54:18;;;;;;;26.27;4.95;;;;;;;;;;5094984;27;20493;-77
2024/02/20 02:56:45;;;;;;;20.77;3.90;;;;;;;;;;5077260;28;20043;-77
2024/02/20 02:59:11;;;;;;;28.35;4.45;;;;;;;;;;5067346;28;20647;-78
2024/02/20 03:01:37;;;;;;;20.83;4.03;;;;;;;;;;5084635;28;20048;-79
2024/02/20 03:04:04;;;;;;;20.60;4.05;;;;;;;;;;5072004;28;20774;-79
2024/02/20 03:06:35;;;;;;;27.50;4.07;;;;;;;;;;5067234;28;20044;-79
2024/02/20 03:09:05;;;;;;;20.08;4.53;;;;;;;;;;5060928;28;20048;-79
2024/02/20 03:11:31;;;;;;;23.05;3.95;;;;;;;;;;5086914;28;20161;-79
2024/02/20 03:13:58;;;;;;;23.10;3.42;;;;;;;;;;5067788;28;20079;-79
2024/02/20 03:16:24;;;;;;;22.63;4.30;;;;;;;;;;5070593;28;20052;-77
2024/02/20 03:18:51;;;;;;;23.40;4.05;;;;;;;;;;5071142;28;20056;-79
2024/02/20 03:21:20;;;;;;;25.75;4.32;;;;;;;;;;5075258;28;20048;-78
2024/02/20 03:23:46;;;;;;;;;;;;;;;;;;5055130;28;20056;-78
2024/02/20 03:26:13;;;;;;;16.30;3.95;;;;;;;;;;5085263;28;19916;-75
2024/02/20 03:28:39;;;;;;;28.85;4.70;;;;;;;;;;5078760;28;20049;-78
2024/02/20 03:31:07;;;;;;;21.83;4.38;;;;;;;;;;5076813;28;20428;-79
2024/02/20 03:33:34;;;;;;;22.55;3.72;;;;;;;;;;5080457;28;20071;-78
2024/02/20 03:36:02;;;;;;;33.38;5.28;;;;;;;;;;5069050;28;20189;-79
2024/02/20 03:38:28;;;;;;;26.90;4.25;;;;;;;;;;5060430;28;20040;-79
2024/02/20 03:40:55;;;;;;;24.40;4.45;;;;;;;;;;5056811;28;20051;-79
2024/02/20 03:43:21;;;;;;;20.40;4.15;;;;;;;;;;5071960;28;20040;-78
2024/02/20 03:45:48;;;;;;;28.27;3.90;;;;;;;;;;5089859;28;20060;-79
2024/02/20 03:48:14;;;;;;;25.15;4.43;;;;;;;;;;5082280;28;20056;-78
2024/02/20 03:50:41;;;;;;;25.30;3.92;;;;;;;;;;5066867;28;20131;-78
2024/02/20 03:53:07;;;;;;;28.38;4.20;;;;;;;;;;5066772;28;20047;-79
2024/02/20 03:55:34;;;;;;;30.02;5.00;;;;;;;;;;5083270;28;20062;-79
2024/02/20 03:58:01;;;;;;;22.20;5.15;;;;;;;;;;5080683;28;20059;-79
2024/02/20 04:00:27;;;;;;;22.23;5.53;;;;;;;;;;5063308;28;20043;-78
2024/02/20 04:02:56;;;;;;;26.95;4.40;;;;;;;;;;5086284;28;20044;-79
2024/02/20 04:05:23;;;;;;;20.67;4.15;;;;;;;;;;5066282;28;20067;-78
2024/02/20 04:07:49;;;;;;;20.08;3.90;;;;;;;;;;5066877;28;20052;-78
2024/02/20 04:10:16;;;;;;;21.58;4.03;;;;;;;;;;5068394;28;20048;-79
2024/02/20 04:12:43;;;;;;;22.75;4.70;;;;;;;;;;5048719;28;20787;-79
2024/02/20 04:15:11;;;;;;;25.60;4.78;;;;;;;;;;5086546;28;20140;-78
2024/02/20 04:17:37;;;;;;;25.90;3.58;;;;;;;;;;5081350;28;20056;-77
2024/02/20 04:20:05;;;;;;;28.92;5.00;;;;;;;;;;5083854;28;20056;-78
2024/02/20 04:22:32;;;;;;;21.13;3.58;;;;;;;;;;5072235;28;20197;-79
2024/02/20 04:24:58;;;;;;;32.05;4.35;;;;;;;;;;5085077;28;20048;-80
2024/02/20 04:27:26;;;;;;;27.75;5.22;;;;;;;;;;5058269;28;20067;-76
2024/02/20 04:29:53;;;;;;;31.00;5.10;;;;;;;;;;5063106;28;20032;-79
2024/02/20 04:32:19;;;;;;;23.10;3.97;;;;;;;;;;5084473;28;20578;-78
2024/02/20 04:34:46;;;;;;;26.45;4.13;;;;;;;;;;5058654;28;20078;-79
2024/02/20 04:37:14;;;;;;;22.52;4.53;;;;;;;;;;5080628;28;20052;-80
2024/02/20 04:39:43;;;;;;;27.65;5.05;;;;;;;;;;5075771;28;20058;-79
2024/02/20 04:42:10;;;;;;;22.88;4.70;;;;;;;;;;5080320;28;20056;-79
2024/02/20 04:44:39;;;;;;;27.30;4.70;;;;;;;;;;5085003;28;20147;-77
2024/02/20 04:47:06;;;;;;;24.67;4.00;;;;;;;;;;5064921;28;20071;-79
2024/02/20 04:49:33;;;;;;;18.63;3.40;;;;;;;;;;5054190;28;21344;-79
2024/02/20 04:52:00;;;;;;;22.48;4.05;;;;;;;;;;5066771;28;20079;-78
2024/02/20 04:54:26;;;;;;;22.70;3.78;;;;;;;;;;5099131;28;20698;-78
2024/02/20 04:56:53;;;;;;;19.58;4.25;;;;;;;;;;5083143;28;20098;-78
2024/02/20 04:59:19;;;;;;;24.77;5.05;;;;;;;;;;5062460;28;20089;-78
2024/02/20 05:01:47;;;;;;;30.50;5.40;;;;;;;;;;5061160;28;20039;-78
2024/02/20 05:04:13;;;;;;;12.90;3.55;;;;;;;;;;5076194;28;20048;-78
2024/02/20 05:06:40;;;;;;;18.27;4.63;;;;;;;;;;5055574;28;20056;-78
2024/02/20 05:09:06;;;;;;;27.00;4.20;;;;;;;;;;5078576;28;20041;-79
2024/02/20 05:11:33;;;;;;;14.88;4.15;;;;;;;;;;5066246;28;20048;-80
2024/02/20 05:13:59;;;;;;;28.63;4.93;;;;;;;;;;5069881;28;20060;-80
2024/02/20 05:16:25;;;;;;;26.20;4.93;;;;;;;;;;5060688;28;20052;-80
2024/02/20 05:18:52;;;;;;;18.85;3.58;;;;;;;;;;5071738;28;20103;-80
2024/02/20 05:21:19;;;;;;;16.15;4.32;;;;;;;;;;5080478;28;20063;-78
2024/02/20 05:23:45;;;;;;;17.75;4.07;;;;;;;;;;5057939;28;20094;-79
2024/02/20 05:26:11;;;;;;;21.30;4.40;;;;;;;;;;5055439;28;20101;-80
2024/02/20 05:28:38;;;;;;;13.98;3.75;;;;;;;;;;5071472;28;20059;-79
2024/02/20 05:31:23;;;;;;;24.65;4.40;;;;;;;;;;5070386;28;20155;-77
2024/02/20 05:33:50;;;;;;;19.35;4.53;;;;;;;;;;5065961;28;20617;-79
2024/02/20 05:36:16;;;;;;;16.60;4.25;;;;;;;;;;5055714;28;20048;-79
2024/02/20 05:38:43;;;;;;;19.60;4.72;;;;;;;;;;5078222;28;20125;-79
2024/02/20 05:41:09;;;;;;;19.75;5.32;;;;;;;;;;5052088;28;20074;-77
2024/02/20 05:43:37;;;;;;;24.23;4.50;;;;;;;;;;5086307;28;20125;-78
2024/02/20 05:46:03;;;;;;;25.30;5.65;;;;;;;;;;5040739;28;20040;-80
2024/02/20 05:48:30;;;;;;;29.67;4.90;;;;;;;;;;5079414;28;20173;-79
2024/02/20 05:50:57;;;;;;;22.73;4.85;;;;;;;;;;5067558;28;20051;-79
2024/02/20 05:53:23;;;;;;;28.23;4.95;;;;;;;;;;5068429;28;20052;-78
2024/02/20 05:55:50;;;;;;;18.50;4.47;;;;;;;;;;5066259;28;20044;-80
2024/02/20 05:58:16;;;;;;;24.02;5.03;;;;;;;;;;5059847;28;20471;-77
2024/02/20 06:00:43;;;;;;;26.42;4.88;;;;;;;;;;5070355;28;20630;-79
2024/02/20 06:03:09;;;;;;;24.45;4.80;;;;;;;;;;5062912;28;20052;-80
2024/02/20 06:05:35;;;;;;;23.85;4.78;;;;;;;;;;5079395;28;20114;-78
2024/02/20 06:08:03;;;;;;;22.23;5.18;;;;;;;;;;5067665;28;20094;-79
2024/02/20 06:10:29;;;;;;;26.90;5.70;;;;;;;;;;5074692;28;20451;-77
2024/02/20 06:12:56;;;;;;;23.63;5.60;;;;;;;;;;5051631;28;20082;-79
2024/02/20 06:15:22;;;;;;;22.80;6.60;;;;;;;;;;5077417;28;20087;-80
2024/02/20 06:17:49;;;;;;;23.90;5.80;;;;;;;;;;5073328;28;20101;-79
2024/02/20 06:20:16;;;;;;;29.05;5.78;;;;;;;;;;5076414;28;20090;-78
2024/02/20 06:22:42;;;;;;;26.95;5.90;;;;;;;;;;5075694;28;20044;-78
2024/02/20 06:25:09;;;;;;;20.92;5.50;;;;;;;;;;5053819;28;20051;-79
2024/02/20 06:27:38;;;;;;;33.20;7.13;;;;;;;;;;5083834;28;20056;-78
2024/02/20 06:30:08;;;;;;;;;;;;;;;;;;5077343;28;20709;-79
2024/02/20 06:32:34;;;;;;;26.40;7.43;;;;;;;;;;5075986;28;19979;-79
2024/02/20 06:35:01;;;;;;;23.25;6.03;;;;;;;;;;5070142;28;20044;-78
2024/02/20 06:37:28;;;;;;;21.88;6.55;;;;;;;;;;5089544;28;20514;-78
2024/02/20 06:39:54;;;;;;;22.00;5.60;;;;;;;;;;5076783;28;20098;-79
2024/02/20 06:42:22;;;;;;;20.52;5.88;;;;;;;;;;5077268;28;20239;-77
2024/02/20 06:44:48;;;;;;;32.50;6.20;;;;;;;;;;5062381;28;20511;-77
2024/02/20 06:47:14;;;;;;;19.45;5.15;;;;;;;;;;5073999;28;20333;-77
2024/02/20 06:49:41;;;;;;;24.08;6.07;;;;;;;;;;5069605;28;20056;-79
2024/02/20 06:52:07;;;;;;;26.80;5.78;;;;;;;;;;5083763;28;20514;-78
2024/02/20 06:54:34;;;;;;;27.60;6.43;;;;;;;;;;5069801;28;20106;-79
2024/02/20 06:57:00;;;;;;;21.60;5.75;;;;;;;;;;5050117;28;20147;-78
2024/02/20 06:59:26;;;;;;;28.63;6.82;;;;;;;;;;5078990;28;20048;-78
2024/02/20 07:01:53;;;;;;;19.35;4.78;;;;;;;;;;5062326;28;20052;-80
2024/02/20 07:04:20;;;;;;;22.08;6.53;;;;;;;;;;5052305;28;20055;-79
2024/02/20 07:06:47;;;;;;;23.85;6.63;;;;;;;;;;5083789;28;20163;-78
2024/02/20 07:09:13;;;;;;;21.75;6.35;;;;;;;;;;5054004;28;20064;-78
2024/02/20 07:11:44;;;;;;;31.55;6.45;;;;;;;;;;5073727;28;20094;-78
2024/02/20 07:14:11;;;;;;;21.20;6.47;;;;;;;;;;5084208;28;20708;-78
2024/02/20 07:16:37;;;;;;;22.48;5.97;;;;;;;;;;5052880;28;20056;-75
2024/02/20 07:19:05;;;;;;;20.52;5.82;;;;;;;;;;5082725;28;21198;-78
2024/02/20 07:21:31;;;;;;;25.38;6.38;;;;;;;;;;5052524;28;20050;-78
2024/02/20 07:23:58;;;;;;;21.33;5.43;;;;;;;;;;5074457;28;20557;-78
2024/02/20 07:26:27;;;;;;;29.67;6.25;;;;;;;;;;5071656;28;20057;-79
2024/02/20 07:28:54;;;;;;;20.80;5.68;;;;;;;;;;5053313;28;20044;-77
2024/02/20 07:31:21;;;;;;;16.73;4.63;;;;;;;;;;5081682;28;20110;-79
2024/02/20 07:33:48;;;;;;;28.25;6.05;;;;;;;;;;5088155;28;20058;-77
2024/02/20 07:36:29;;;;;;;24.35;5.10;;;;;;;;;;5070686;28;20704;-78
2024/02/20 07:38:56;;;;;;;22.77;5.88;;;;;;;;;;5061097;28;20080;-78
2024/02/20 07:41:23;;;;;;;25.58;5.53;;;;;;;;;;5067482;28;20048;-80
2024/02/20 07:43:50;;;;;;;29.00;6.45;;;;;;;;;;5063666;28;20446;-79
2024/02/20 07:46:16;;;;;;;26.27;5.30;;;;;;;;;;5089039;28;20064;-77
2024/02/20 07:48:42;;;;;;;20.80;5.47;;;;;;;;;;5074506;28;20071;-76
2024/02/20 07:51:09;;;;;;;26.45;5.07;;;;;;;;;;5065683;28;20045;-78
2024/02/20 07:53:36;;;;;;;18.52;6.05;;;;;;;;;;5079457;28;20133;-78
2024/02/20 07:56:05;;;;;;;31.67;5.70;;;;;;;;;;5063223;28;20424;-77
2024/02/20 07:58:31;;;;;;;;;;;;;;;;;;5066077;28;20133;-77
2024/02/20 08:01:09;;;;;;;23.23;6.75;;;;;;;;;;5072470;28;19923;-79
2024/02/20 08:03:36;;;;;;;20.75;5.60;;;;;;;;;;5067715;28;20154;-78
2024/02/20 08:06:02;;;;;;;21.67;5.43;;;;;;;;;;5057923;28;20507;-78
2024/02/20 08:08:29;;;;;;;29.73;6.82;;;;;;;;;;5078897;28;20097;-76
2024/02/20 08:10:55;;;;;;;25.30;5.50;;;;;;;;;;5066203;28;20057;-80
2024/02/20 08:13:23;;;;;;;26.42;5.50;;;;;;;;;;5064896;28;20045;-77
2024/02/20 08:15:49;;;;;;;21.98;5.60;;;;;;;;;;5083619;28;20131;-82
2024/02/20 08:18:16;;;;;;;26.58;6.53;;;;;;;;;;5060154;28;20048;-75
2024/02/20 08:20:42;;;;;;;29.02;6.68;;;;;;;;;;5066635;28;20057;-75
2024/02/20 08:23:08;;;;;;;19.70;5.85;;;;;;;;;;5060958;28;20127;-75
2024/02/20 08:25:35;;;;;;;28.90;7.00;;;;;;;;;;5054923;28;20086;-78
2024/02/20 08:28:01;;;;;;;27.65;5.75;;;;;;;;;;5070579;28;20662;-77
2024/02/20 08:30:28;;;;;;;24.50;6.35;;;;;;;;;;5064531;28;20581;-78
2024/02/20 08:32:54;;;;;;;19.20;5.38;;;;;;;;;;5060612;28;20036;-76
2024/02/20 08:35:21;;;;;;;26.27;7.07;;;;;;;;;;5065440;28;20529;-77
2024/02/20 08:37:48;;;;;;;27.90;5.65;;;;;;;;;;5060465;28;20052;-77
2024/02/20 08:40:15;;;;;;;24.75;6.22;;;;;;;;;;5068106;28;20130;-79
2024/02/20 08:42:41;;;;;;;33.15;6.30;;;;;;;;;;5052643;28;20048;-77
2024/02/20 08:45:08;;;;;;;25.67;5.65;;;;;;;;;;5064497;28;20041;-77
2024/02/20 08:47:35;;;;;;;26.42;5.28;;;;;;;;;;5058981;28;20113;-78
2024/02/20 08:50:03;;;;;;;23.90;6.88;;;;;;;;;;5085715;28;20051;-77
2024/02/20 08:52:29;;;;;;;24.67;6.00;;;;;;;;;;5060605;28;20131;-77
2024/02/20 08:54:56;;;;;;;26.85;6.38;;;;;;;;;;5067772;28;20063;-77
2024/02/20 08:57:23;;;;;;;28.77;6.90;;;;;;;;;;5086265;28;20082;-77
2024/02/20 08:59:50;;;;;;;29.52;6.05;;;;;;;;;;5075503;28;20080;-78
2024/02/20 09:02:16;;;;;;;23.15;5.50;;;;;;;;;;5072266;28;20072;-77
2024/02/20 09:04:43;;;;;;;28.10;6.93;;;;;;;;;;5050522;28;20673;-78
2024/02/20 09:07:10;;;;;;;28.13;6.68;;;;;;;;;;5062425;28;20135;-78
2024/02/20 09:09:40;;;;;;;24.85;5.68;;;;;;;;;;5049797;28;20044;-78
2024/02/20 09:12:08;;;;;;;25.95;6.15;;;;;;;;;;5075867;28;20113;-78
2024/02/20 09:14:35;;;;;;;;;;;;;;;;;;5077692;28;20052;-77
2024/02/20 09:17:01;;;;;;;23.50;5.90;;;;;;;;;;5095429;28;20365;-77
2024/02/20 09:19:27;;;;;;;24.90;5.40;;;;;;;;;;5083606;28;20056;-78
2024/02/20 09:21:54;;;;;;;28.98;6.18;;;;;;;;;;5067199;28;20044;-77
2024/02/20 09:24:20;;;;;;;24.98;5.55;;;;;;;;;;5073956;28;20048;-78
2024/02/20 09:26:47;;;;;;;31.08;6.30;;;;;;;;;;5078392;28;20481;-81
2024/02/20 09:29:14;;;;;;;18.95;5.53;;;;;;;;;;5045887;28;20044;-84
2024/02/20 09:31:40;;;;;;;31.13;6.18;;;;;;;;;;5082626;28;20083;-82
2024/02/20 09:34:07;;;;;;;27.65;6.68;;;;;;;;;;5070290;28;20147;-81
2024/02/20 09:36:33;;;;;;;27.25;6.15;;;;;;;;;;5065299;28;20056;-83
2024/02/20 09:39:03;;;;;;;29.23;6.55;;;;;;;;;;5073644;28;20059;-81
2024/02/20 09:41:31;;;;;;;21.85;5.65;;;;;;;;;;5074886;28;20079;-83
2024/02/20 09:43:58;;;;;;;18.50;5.07;;;;;;;;;;5066708;28;20053;-82
2024/02/20 09:46:25;;;;;;;24.35;6.40;;;;;;;;;;5058638;28;20119;-83
2024/02/20 09:48:53;;;;;;;24.88;5.68;;;;;;;;;;5071246;28;20051;-83
2024/02/20 09:51:20;;;;;;;24.15;5.32;;;;;;;;;;5059759;28;20485;-84
2024/02/20 09:53:49;;;;;;;17.70;4.82;;;;;;;;;;5091041;28;20040;-83
2024/02/20 09:56:17;;;;;;;;;;;;;;;;;;5084796;28;20446;-81
2024/02/20 09:58:43;;;;;;;21.35;5.82;;;;;;;;;;5071620;28;19920;-82
2024/02/20 10:01:10;;;;;;;31.45;6.45;;;;;;;;;;5074620;28;20036;-84
2024/02/20 10:03:38;;;;;;;17.02;4.95;;;;;;;;;;5072843;28;20506;-82
2024/02/20 10:06:07;;;;;;;29.45;6.50;;;;;;;;;;5069513;28;20549;-84
2024/02/20 10:08:33;;;;;;;28.75;6.07;;;;;;;;;;5082391;28;20497;-85
2024/02/20 10:11:01;;;;;;;23.88;6.13;;;;;;;;;;5062164;28;20115;-84
2024/02/20 10:13:28;;;;;;;30.75;6.10;;;;;;;;;;5089995;28;20731;-83
2024/02/20 10:16:02;;;;;;;26.00;7.50;;;;;;;;;;5088081;28;20048;-83
2024/02/20 10:18:29;;;;;;;22.35;6.10;;;;;;;;;;5073593;28;20131;-83
2024/02/20 10:21:05;;;;;;;23.95;6.40;;;;;;;;;;5080356;28;20044;-85
2024/02/20 10:23:32;;;;;;;24.77;6.22;;;;;;;;;;5072252;28;20573;-85
2024/02/20 10:25:59;;;;;;;24.25;6.43;;;;;;;;;;5056826;28;20106;-82
2024/02/20 10:28:26;;;;;;;25.42;5.50;;;;;;;;;;5078492;28;20049;-83
2024/02/20 10:30:54;;;;;;;24.15;7.18;;;;;;;;;;5073965;28;20056;-85
2024/02/20 10:33:20;;;;;;;18.63;5.95;;;;;;;;;;5083536;28;20044;-80
2024/02/20 10:35:47;;;;;;;35.30;6.60;;;;;;;;;;5078238;28;20108;-81
2024/02/20 10:38:18;;;;;;;25.92;6.53;;;;;;;;;;5068751;28;20071;-82
2024/02/20 10:40:44;;;;;;;21.08;5.97;;;;;;;;;;5060338;28;20542;-79
2024/02/20 10:43:11;;;;;;;36.38;7.15;;;;;;;;;;5070611;28;20124;-83
2024/02/20 10:45:38;;;;;;;24.55;6.75;;;;;;;;;;5057043;28;20064;-82
2024/02/20 10:48:10;;;;;;;27.10;6.25;;;;;;;;;;5081624;28;20389;-83
2024/02/20 10:50:37;;;;;;;22.10;5.88;;;;;;;;;;5081399;28;20079;-81
2024/02/20 10:53:04;;;;;;;27.38;6.75;;;;;;;;;;5083637;28;20067;-79
2024/02/20 10:55:31;;;;;;;27.38;7.07;;;;;;;;;;5068900;28;20085;-85
2024/02/20 10:58:01;;;;;;;26.25;6.32;;;;;;;;;;5068254;28;20048;-85
2024/02/20 11:00:32;;;;;;;26.42;7.40;;;;;;;;;;5059442;28;20055;-85
2024/02/20 11:02:59;;;;;;;25.80;7.28;;;;;;;;;;5075217;28;20533;-82
2024/02/20 11:05:26;;;;;;;24.38;7.50;;;;;;;;;;5102943;28;20079;-84
2024/02/20 11:08:03;;;;;;;22.38;7.25;;;;;;;;;;5082474;28;20105;-83
2024/02/20 11:10:29;;;;;;;31.83;7.25;;;;;;;;;;5054386;28;20054;-84
2024/02/20 11:12:56;;;;;;;28.00;7.43;;;;;;;;;;5072949;28;20480;-84
2024/02/20 11:15:26;;;;;;;32.13;8.43;;;;;;;;;;5085613;28;20044;-83
2024/02/20 11:17:55;;;;;;;27.30;7.30;;;;;;;;;;5070667;28;20169;-84
2024/02/20 11:20:23;;;;;;;23.50;6.53;;;;;;;;;;5067952;28;20102;-81
2024/02/20 11:22:50;;;;;;;31.27;8.38;;;;;;;;;;5082688;28;20056;-84
2024/02/20 11:25:17;;;;;;;28.25;8.02;;;;;;;;;;5070543;28;20131;-83
2024/02/20 11:27:48;;;;;;;24.90;7.05;;;;;;;;;;5077504;28;20070;-83
2024/02/20 11:30:24;;;;;;;27.40;7.53;;;;;;;;;;5055756;28;20493;-83
2024/02/20 11:32:51;;;;;;;20.85;6.60;;;;;;;;;;5055758;28;20075;-83
2024/02/20 11:35:23;;;;;;;24.67;7.53;;;;;;;;;;5067081;28;20044;-82
2024/02/20 11:37:51;;;;;;;29.27;7.97;;;;;;;;;;5069032;28;20055;-83
2024/02/20 11:40:21;;;;;;;25.05;7.22;;;;;;;;;;5060447;28;20052;-82
2024/02/20 11:42:49;;;;;;;28.85;7.10;;;;;;;;;;5088663;28;20036;-83
2024/02/20 11:45:24;;;;;;;23.00;7.13;;;;;;;;;;5071857;28;20078;-83
2024/02/20 11:48:10;;;;;;;25.48;8.02;;;;;;;;;;5080693;28;20110;-79
2024/02/20 11:50:37;;;;;;;24.65;7.45;;;;;;;;;;5071568;28;20056;-80
2024/02/20 11:53:05;;;;;;;38.05;8.93;;;;;;;;;;5031920;28;1128854;-79
2024/02/20 11:55:32;;;;;;;27.17;6.88;;;;;;;;;;5072877;28;20519;-78
2024/02/20 11:57:59;;;;;;;23.13;6.63;;;;;;;;;;5070993;28;20052;-76
2024/02/20 12:00:27;;;;;;;30.70;7.57;;;;;;;;;;5061919;28;20097;-79
2024/02/20 12:02:54;;;;;;;18.65;6.60;;;;;;;;;;5079230;28;20044;-77
2024/02/20 12:05:21;;;;;;;26.48;6.05;;;;;;;;;;5087245;28;20097;-77
2024/02/20 12:07:48;;;;;;;28.70;6.72;;;;;;;;;;5054443;28;20086;-77
2024/02/20 12:10:15;;;;;;;28.63;6.07;;;;;;;;;;5073744;28;20040;-79
2024/02/20 12:12:42;;;;;;;23.98;6.32;;;;;;;;;;5062250;28;20048;-78
2024/02/20 12:15:10;;;;;;;23.50;6.80;;;;;;;;;;5077065;28;20048;-77
2024/02/20 12:17:37;;;;;;;17.10;5.35;;;;;;;;;;5099638;28;20048;-79
2024/02/20 12:20:11;;;;;;;24.67;6.25;;;;;;;;;;5092012;28;20079;-78
2024/02/20 12:22:41;;;;;;;27.85;6.75;;;;;;;;;;5081453;28;20052;-78
2024/02/20 12:25:17;;;;;;;26.13;6.70;;;;;;;;;;5066022;28;20075;-77
2024/02/20 12:27:45;;;;;;;22.95;6.07;;;;;;;;;;5074072;28;20106;-78
2024/02/20 12:30:11;;;;;;;23.98;6.28;;;;;;;;;;5089630;28;20081;-81
2024/02/20 12:32:38;;;;;;;23.80;5.88;;;;;;;;;;5054187;28;20373;-78
2024/02/20 12:35:05;;;;;;;27.52;6.57;;;;;;;;;;5071332;28;20087;-79
2024/02/20 12:37:32;;;;;;;27.10;6.45;;;;;;;;;;5082254;28;20099;-77
2024/02/20 12:39:59;;;;;;;19.63;6.05;;;;;;;;;;5084285;28;20048;-76
2024/02/20 12:42:25;;;;;;;29.30;6.93;;;;;;;;;;5072759;28;20048;-80
2024/02/20 12:44:52;;;;;;;23.88;6.10;;;;;;;;;;5068603;28;20108;-78
2024/02/20 12:47:18;;;;;;;16.75;5.43;;;;;;;;;;5083909;28;20598;-79
2024/02/20 12:49:45;;;;;;;20.95;6.25;;;;;;;;;;5061932;28;20128;-82
2024/02/20 12:52:11;;;;;;;25.05;6.80;;;;;;;;;;5065247;28;20450;-79
2024/02/20 12:54:38;;;;;;;26.27;6.32;;;;;;;;;;5081475;28;20056;-80
2024/02/20 12:57:04;;;;;;;22.55;5.80;;;;;;;;;;5082156;28;20052;-79
2024/02/20 12:59:31;;;;;;;22.20;5.95;;;;;;;;;;5091844;28;20063;-80
2024/02/20 13:01:57;;;;;;;17.40;5.30;;;;;;;;;;5059170;28;20126;-79
2024/02/20 13:04:24;;;;;;;29.02;6.25;;;;;;;;;;5088901;28;20051;-80
2024/02/20 13:06:51;;;;;;;23.27;5.68;;;;;;;;;;5061077;28;20083;-80
2024/02/20 13:09:17;;;;;;;22.90;6.35;;;;;;;;;;5079750;28;20055;-81
2024/02/20 13:11:44;;;;;;;20.52;6.13;;;;;;;;;;5082814;28;20040;-79
2024/02/20 13:14:11;;;;;;;23.15;5.30;;;;;;;;;;5076394;28;20047;-79
2024/02/20 13:16:41;;;;;;;30.90;6.35;;;;;;;;;;5057471;28;20056;-78
2024/02/20 13:19:07;;;;;;;26.55;6.82;;;;;;;;;;5071300;28;20048;-80
2024/02/20 13:21:35;;;;;;;21.85;6.25;;;;;;;;;;5075089;28;20063;-79
2024/02/20 13:24:02;;;;;;;24.65;5.63;;;;;;;;;;5071810;28;20067;-81
2024/02/20 13:26:28;;;;;;;25.17;6.35;;;;;;;;;;5066958;28;20127;-80
2024/02/20 13:28:55;;;;;;;20.00;5.65;;;;;;;;;;5062165;28;20429;-80
2024/02/20 13:31:22;;;;;;;28.25;5.50;;;;;;;;;;5063374;28;20052;-78
2024/02/20 13:33:48;;;;;;;26.08;5.55;;;;;;;;;;5087276;28;20079;-81
2024/02/20 13:36:15;;;;;;;24.77;6.88;;;;;;;;;;5057404;28;20044;-80
2024/02/20 13:38:42;;;;;;;32.80;6.55;;;;;;;;;;5068309;28;20098;-81
2024/02/20 13:41:09;;;;;;;28.25;5.82;;;;;;;;;;5073207;28;20041;-80
2024/02/20 13:43:37;;;;;;;33.00;6.50;;;;;;;;;;5046798;28;20059;-80
2024/02/20 13:46:03;;;;;;;25.60;6.00;;;;;;;;;;5067802;28;20059;-79
2024/02/20 13:48:30;;;;;;;23.98;5.13;;;;;;;;;;5068798;28;20048;-79
2024/02/20 13:50:57;;;;;;;21.70;5.38;;;;;;;;;;5058918;28;20040;-80
2024/02/20 13:53:23;;;;;;;26.95;5.88;;;;;;;;;;5076272;28;20066;-80
2024/02/20 13:55:51;;;;;;;24.85;5.75;;;;;;;;;;5073232;28;20098;-79
2024/02/20 13:58:17;;;;;;;21.57;5.20;;;;;;;;;;5083568;28;20059;-78
2024/02/20 14:00:44;;;;;;;20.92;5.22;;;;;;;;;;5075662;28;20051;-78
2024/02/20 14:03:11;;;;;;;20.02;5.57;;;;;;;;;;5085775;28;20056;-81
2024/02/20 14:05:38;;;;;;;18.83;5.38;;;;;;;;;;5075371;28;20052;-80
2024/02/20 14:08:08;;;;;;;22.35;5.63;;;;;;;;;;5070886;28;20056;-85
2024/02/20 14:10:34;;;;;;;23.33;5.03;;;;;;;;;;5061666;28;20044;-84
2024/02/20 14:13:04;;;;;;;20.67;5.10;;;;;;;;;;5051546;28;20045;-83
2024/02/20 14:15:31;;;;;;;24.15;5.72;;;;;;;;;;5063661;28;20056;-83
2024/02/20 14:17:58;;;;;;;20.70;4.97;;;;;;;;;;5082006;28;20054;-83
2024/02/20 14:20:24;;;;;;;22.73;5.03;;;;;;;;;;5087722;28;20059;-85
2024/02/20 14:22:51;;;;;;;24.05;4.43;;;;;;;;;;5066983;28;20048;-82
2024/02/20 14:25:18;;;;;;;21.63;4.47;;;;;;;;;;5065442;28;20052;-84
2024/02/20 14:27:44;;;;;;;24.25;4.72;;;;;;;;;;5060076;28;20048;-82
2024/02/20 14:30:11;;;;;;;20.73;5.07;;;;;;;;;;5069709;28;20492;-82